createdAt,value
2022-08-17T00:01:37.871Z,18.69
2022-08-17T00:04:19.213Z,18.72
2022-08-17T00:06:46.191Z,18.76
2022-08-17T00:09:18.352Z,18.80
2022-08-17T00:12:44.419Z,18.84
2022-08-17T00:14:33.967Z,18.85
2022-08-17T00:17:00.754Z,18.87
2022-08-17T00:19:27.289Z,18.88
2022-08-17T00:22:31.004Z,18.91
2022-08-17T00:24:44.100Z,18.95
2022-08-17T00:27:17.321Z,18.97
2022-08-17T00:29:45.773Z,18.98
2022-08-17T00:33:15.778Z,18.95
2022-08-17T00:35:00.631Z,18.92
2022-08-17T00:37:27.587Z,18.89
2022-08-17T00:39:54.217Z,18.86
2022-08-17T00:42:20.949Z,18.89
2022-08-17T00:44:47.672Z,18.89
2022-08-17T00:47:14.321Z,18.88
2022-08-17T00:49:40.885Z,18.90
2022-08-17T00:52:15.587Z,18.85
2022-08-17T00:54:46.944Z,18.80
2022-08-17T00:57:24.949Z,18.67
2022-08-17T01:00:07.611Z,18.64
2022-08-17T01:02:42.949Z,18.62
2022-08-17T01:05:14.772Z,18.50
2022-08-17T01:07:42.867Z,18.44
2022-08-17T01:10:58.158Z,18.41
2022-08-17T01:13:02.507Z,18.39
2022-08-17T01:15:36.437Z,18.36
2022-08-17T01:18:08.254Z,18.25
2022-08-17T01:20:47.827Z,18.23
2022-08-17T01:23:21.004Z,18.11
2022-08-17T01:25:54.133Z,18.05
2022-08-17T01:28:52.832Z,18.02
2022-08-17T01:31:09.687Z,17.96
2022-08-17T01:33:36.800Z,17.95
2022-08-17T01:36:06.925Z,17.93
2022-08-17T01:38:37.748Z,17.94
2022-08-17T01:41:12.633Z,17.95
2022-08-17T01:43:49.540Z,17.93
2022-08-17T01:46:28.006Z,17.87
2022-08-17T01:48:57.532Z,17.81
2022-08-17T01:51:33.213Z,17.82
2022-08-17T01:54:05.787Z,17.77
2022-08-17T01:56:35.417Z,17.74
2022-08-17T01:59:02.840Z,17.69
2022-08-17T02:01:31.825Z,17.63
2022-08-17T02:04:00.754Z,17.56
2022-08-17T02:06:45.175Z,17.53
2022-08-17T02:09:22.336Z,17.50
2022-08-17T02:11:53.429Z,17.46
2022-08-17T02:14:20.943Z,17.36
2022-08-17T02:16:47.476Z,17.34
2022-08-17T02:19:15.927Z,17.32
2022-08-17T02:21:47.042Z,17.32
2022-08-17T02:24:58.413Z,17.36
2022-08-17T02:27:06.115Z,17.36
2022-08-17T02:29:32.733Z,17.30
2022-08-17T02:32:00.129Z,17.24
2022-08-17T02:34:27.439Z,17.20
2022-08-17T02:36:54.213Z,17.16
2022-08-17T02:39:20.709Z,17.13
2022-08-17T02:41:47.417Z,17.08
2022-08-17T02:44:39.670Z,17.03
2022-08-17T02:47:04.106Z,17.02
2022-08-17T02:49:30.907Z,17.01
2022-08-17T02:51:58.487Z,16.99
2022-08-17T02:54:40.154Z,17.02
2022-08-17T02:57:07.606Z,17.01
2022-08-17T02:59:34.252Z,17.04
2022-08-17T03:02:03.281Z,17.07
2022-08-17T03:04:33.788Z,17.17
2022-08-17T03:07:02.269Z,17.19
2022-08-17T03:09:28.930Z,17.22
2022-08-17T03:11:56.118Z,17.21
2022-08-17T03:14:26.039Z,17.22
2022-08-17T03:16:53.011Z,17.17
2022-08-17T03:19:19.471Z,17.15
2022-08-17T03:21:45.931Z,17.08
2022-08-17T03:24:21.661Z,17.06
2022-08-17T03:26:55.794Z,17.03
2022-08-17T03:29:22.437Z,17.03
2022-08-17T03:31:49.875Z,17.05
2022-08-17T03:34:17.302Z,17.14
2022-08-17T03:36:44.347Z,17.20
2022-08-17T03:39:10.973Z,17.35
2022-08-17T03:41:39.120Z,17.52
2022-08-17T03:44:05.808Z,17.77
2022-08-17T03:46:51.522Z,17.95
2022-08-17T03:49:36.746Z,18.05
2022-08-17T03:52:23.060Z,18.15
2022-08-17T03:55:21.659Z,18.24
2022-08-17T03:58:02.589Z,18.34
2022-08-17T04:00:29.093Z,18.42
2022-08-17T04:02:55.729Z,18.49
2022-08-17T04:05:22.224Z,18.54
2022-08-17T04:07:48.744Z,18.66
2022-08-17T04:10:15.513Z,18.69
2022-08-17T04:12:51.154Z,18.79
2022-08-17T04:15:18.517Z,18.88
2022-08-17T04:17:45.737Z,19.04
2022-08-17T04:20:15.026Z,19.08
2022-08-17T04:22:58.743Z,19.06
2022-08-17T04:25:27.334Z,19.21
2022-08-17T04:27:55.312Z,19.16
2022-08-17T04:30:22.615Z,19.10
2022-08-17T04:33:06.430Z,19.05
2022-08-17T04:35:47.206Z,19.04
2022-08-17T04:38:20.814Z,19.06
2022-08-17T04:41:07.372Z,19.02
2022-08-17T04:43:35.661Z,18.99
2022-08-17T04:46:13.431Z,19.05
2022-08-17T04:48:43.193Z,19.08
2022-08-17T04:51:25.214Z,19.14
2022-08-17T04:53:56.172Z,19.19
2022-08-17T04:56:25.020Z,19.23
2022-08-17T04:58:54.423Z,19.28
2022-08-17T05:01:22.983Z,19.33
2022-08-17T05:03:51.800Z,19.04
2022-08-17T05:06:18.275Z,18.51
2022-08-17T05:08:44.833Z,18.43
2022-08-17T05:11:11.336Z,18.36
2022-08-17T05:13:37.856Z,18.31
2022-08-17T05:16:04.906Z,18.31
2022-08-17T05:18:32.018Z,18.31
2022-08-17T05:20:59.002Z,18.26
2022-08-17T05:23:27.324Z,18.47
2022-08-17T05:26:19.865Z,18.82
2022-08-17T05:28:59.672Z,18.96
2022-08-17T05:31:30.119Z,18.98
2022-08-17T05:33:57.178Z,18.97
2022-08-17T05:36:43.723Z,18.89
2022-08-17T05:39:15.720Z,18.98
2022-08-17T05:41:45.636Z,19.39
2022-08-17T05:44:12.098Z,19.54
2022-08-17T05:46:43.579Z,19.51
2022-08-17T05:49:11.073Z,19.45
2022-08-17T05:52:02.606Z,19.46
2022-08-17T05:54:47.827Z,19.38
2022-08-17T05:57:21.039Z,19.38
2022-08-17T06:00:04.499Z,19.43
2022-08-17T06:02:47.713Z,19.39
2022-08-17T06:05:14.515Z,19.36
2022-08-17T06:08:00.102Z,19.44
2022-08-17T06:11:01.869Z,19.50
2022-08-17T06:13:39.105Z,19.57
2022-08-17T06:16:33.134Z,19.60
2022-08-17T06:19:03.259Z,19.70
2022-08-17T06:21:38.787Z,19.85
2022-08-17T06:24:15.905Z,19.88
2022-08-17T06:26:45.271Z,19.97
2022-08-17T06:29:35.313Z,20.14
2022-08-17T06:32:03.111Z,20.15
2022-08-17T06:34:29.853Z,20.09
2022-08-17T06:37:15.576Z,19.99
2022-08-17T06:40:07.371Z,20.00
2022-08-17T06:43:06.734Z,20.12
2022-08-17T06:46:07.482Z,20.25
2022-08-17T06:48:54.176Z,20.40
2022-08-17T06:51:30.014Z,20.50
2022-08-17T06:54:38.177Z,20.46
2022-08-17T06:57:40.162Z,20.51
2022-08-17T07:00:17.736Z,20.74
2022-08-17T07:03:07.902Z,20.94
2022-08-17T07:05:44.264Z,21.19
2022-08-17T07:08:19.724Z,21.30
2022-08-17T07:11:01.069Z,21.35
2022-08-17T07:13:49.300Z,21.54
2022-08-17T07:16:31.430Z,21.71
2022-08-17T07:18:59.910Z,21.86
2022-08-17T07:21:51.142Z,21.98
2022-08-17T07:24:37.169Z,22.06
2022-08-17T07:27:16.067Z,22.26
2022-08-17T07:29:56.656Z,22.39
2022-08-17T07:32:31.822Z,22.55
2022-08-17T07:35:11.195Z,22.72
2022-08-17T07:37:44.835Z,22.80
2022-08-17T07:40:17.386Z,22.74
2022-08-17T07:43:03.251Z,22.70
2022-08-17T07:45:50.594Z,22.65
2022-08-17T07:48:22.078Z,22.62
2022-08-17T07:50:50.600Z,22.69
2022-08-17T07:53:20.704Z,22.79
2022-08-17T07:55:48.758Z,22.91
2022-08-17T07:58:18.194Z,23.08
2022-08-17T08:00:46.086Z,23.26
2022-08-17T08:03:21.696Z,23.38
2022-08-17T08:05:57.558Z,23.47
2022-08-17T08:08:29.041Z,23.47
2022-08-17T08:11:28.377Z,23.44
2022-08-17T08:13:54.897Z,23.38
2022-08-17T08:16:29.678Z,23.21
2022-08-17T08:18:59.809Z,23.10
2022-08-17T08:21:41.738Z,22.87
2022-08-17T08:24:18.723Z,22.77
2022-08-17T08:27:12.240Z,22.63
2022-08-17T08:30:06.647Z,22.54
2022-08-17T08:32:52.190Z,22.46
2022-08-17T08:35:36.934Z,22.47
2022-08-17T08:38:18.799Z,22.34
2022-08-17T08:40:54.511Z,22.33
2022-08-17T08:43:43.135Z,22.38
2022-08-17T08:46:30.781Z,22.43
2022-08-17T08:49:11.978Z,22.45
2022-08-17T08:52:08.438Z,22.44
2022-08-17T08:54:52.219Z,22.37
2022-08-17T08:57:34.322Z,22.31
2022-08-17T09:00:03.974Z,22.26
2022-08-17T09:02:34.689Z,22.20
2022-08-17T09:05:18.331Z,22.18
2022-08-17T09:08:13.897Z,22.16
2022-08-17T09:11:03.383Z,22.13
2022-08-17T09:13:54.138Z,22.10
2022-08-17T09:16:53.517Z,22.10
2022-08-17T09:19:38.128Z,22.05
2022-08-17T09:22:31.504Z,22.02
2022-08-17T09:25:07.400Z,21.96
2022-08-17T09:27:50.420Z,21.88
2022-08-17T09:30:18.511Z,21.81
2022-08-17T09:32:56.852Z,21.84
2022-08-17T09:35:33.769Z,21.88
2022-08-17T09:38:39.398Z,21.96
2022-08-17T09:41:13.801Z,22.20
2022-08-17T09:44:23.354Z,22.54
2022-08-17T09:47:02.275Z,23.08
2022-08-17T09:49:33.739Z,23.53
2022-08-17T09:52:30.682Z,23.94
2022-08-17T09:55:00.030Z,24.15
2022-08-17T09:57:39.749Z,24.30
2022-08-17T10:00:15.811Z,24.39
2022-08-17T10:03:01.763Z,24.58
2022-08-17T10:05:40.474Z,24.74
2022-08-17T10:08:30.046Z,24.82
2022-08-17T10:11:17.393Z,24.64
2022-08-17T10:13:53.534Z,24.63
2022-08-17T10:16:49.254Z,24.56
2022-08-17T10:19:30.880Z,24.66
2022-08-17T10:22:34.933Z,24.52
2022-08-17T10:25:37.621Z,24.43
2022-08-17T10:28:19.895Z,24.59
2022-08-17T10:30:51.854Z,24.89
2022-08-17T10:33:32.614Z,25.20
2022-08-17T10:36:46.336Z,25.75
2022-08-17T10:39:51.889Z,25.92
2022-08-17T10:42:32.441Z,25.97
2022-08-17T10:45:26.517Z,26.08
2022-08-17T10:48:05.312Z,26.38
2022-08-17T10:50:47.903Z,26.25
2022-08-17T10:53:33.059Z,26.35
2022-08-17T10:56:11.861Z,26.32
2022-08-17T10:59:01.024Z,26.39
2022-08-17T11:01:42.060Z,26.68
2022-08-17T11:04:52.188Z,26.94
2022-08-17T11:07:21.643Z,27.09
2022-08-17T11:10:07.013Z,26.76
2022-08-17T11:12:55.171Z,26.85
2022-08-17T11:15:42.123Z,27.06
2022-08-17T11:18:14.647Z,27.04
2022-08-17T11:21:01.355Z,26.91
2022-08-17T11:24:06.019Z,26.36
2022-08-17T11:26:35.726Z,26.11
2022-08-17T11:29:09.393Z,26.07
2022-08-17T11:31:43.651Z,26.08
2022-08-17T11:34:31.609Z,26.01
2022-08-17T11:36:58.138Z,26.06
2022-08-17T11:39:50.176Z,26.34
2022-08-17T11:42:36.207Z,26.54
2022-08-17T11:45:34.919Z,26.81
2022-08-17T11:48:28.437Z,27.14
2022-08-17T11:51:18.263Z,27.45
2022-08-17T11:53:45.791Z,28.12
2022-08-17T11:56:41.090Z,28.00
2022-08-17T11:59:44.825Z,28.02
2022-08-17T12:02:32.580Z,27.55
2022-08-17T12:05:12.419Z,27.44
2022-08-17T12:08:05.445Z,27.53
2022-08-17T12:10:36.556Z,27.93
2022-08-17T12:13:15.735Z,27.97
2022-08-17T12:15:48.752Z,28.14
2022-08-17T12:18:24.449Z,28.17
2022-08-17T12:21:28.631Z,28.34
2022-08-17T12:24:06.479Z,28.20
2022-08-17T12:26:35.760Z,28.33
2022-08-17T12:29:18.228Z,28.84
2022-08-17T12:32:05.634Z,28.63
2022-08-17T12:34:38.476Z,28.54
2022-08-17T12:37:12.773Z,28.29
2022-08-17T12:39:48.659Z,28.39
2022-08-17T12:42:24.302Z,28.71
2022-08-17T12:44:50.947Z,28.95
2022-08-17T12:47:22.325Z,28.98
2022-08-17T12:49:52.188Z,29.18
2022-08-17T12:52:25.870Z,29.26
2022-08-17T12:55:00.430Z,29.24
2022-08-17T12:57:34.771Z,29.11
2022-08-17T13:00:10.070Z,29.22
2022-08-17T13:02:44.089Z,29.12
2022-08-17T13:05:27.606Z,29.40
2022-08-17T13:07:55.936Z,29.64
2022-08-17T13:10:30.034Z,29.72
2022-08-17T13:13:04.699Z,29.87
2022-08-17T13:15:38.118Z,29.36
2022-08-17T13:18:40.287Z,29.43
2022-08-17T13:21:30.357Z,29.53
2022-08-17T13:24:01.423Z,29.73
2022-08-17T13:26:36.862Z,29.79
2022-08-17T13:29:17.315Z,29.69
2022-08-17T13:31:52.344Z,29.68
2022-08-17T13:34:37.516Z,29.72
2022-08-17T13:37:30.087Z,29.52
2022-08-17T13:40:10.653Z,29.53
2022-08-17T13:42:51.859Z,29.23
2022-08-17T13:45:32.328Z,29.45
2022-08-17T13:48:11.888Z,29.47
2022-08-17T13:51:07.099Z,29.73
2022-08-17T13:53:36.540Z,29.76
2022-08-17T13:56:07.455Z,29.87
2022-08-17T13:58:58.341Z,30.06
2022-08-17T14:01:34.908Z,29.59
2022-08-17T14:04:07.811Z,29.25
2022-08-17T14:06:59.327Z,28.89
2022-08-17T14:09:36.857Z,28.55
2022-08-17T14:12:09.222Z,28.37
2022-08-17T14:14:36.315Z,28.38
2022-08-17T14:17:04.000Z,28.28
2022-08-17T14:19:30.609Z,28.44
2022-08-17T14:21:58.815Z,28.49
2022-08-17T14:24:35.093Z,28.24
2022-08-17T14:27:03.994Z,27.96
2022-08-17T14:29:32.437Z,27.83
2022-08-17T14:32:04.245Z,27.65
2022-08-17T14:34:30.796Z,27.56
2022-08-17T14:36:57.351Z,27.74
2022-08-17T14:39:24.063Z,27.87
2022-08-17T14:41:50.654Z,28.34
2022-08-17T14:44:17.193Z,28.15
2022-08-17T14:46:44.898Z,28.52
2022-08-17T14:49:12.894Z,28.70
2022-08-17T14:51:44.182Z,28.67
2022-08-17T14:54:12.081Z,28.44
2022-08-17T14:57:02.861Z,28.59
2022-08-17T14:59:45.345Z,28.76
2022-08-17T15:02:13.209Z,28.56
2022-08-17T15:04:44.926Z,28.84
2022-08-17T15:07:12.273Z,28.90
2022-08-17T15:09:39.082Z,28.96
2022-08-17T15:12:09.479Z,28.43
2022-08-17T15:14:36.365Z,27.92
2022-08-17T15:17:03.719Z,28.03
2022-08-17T15:19:30.529Z,28.27
2022-08-17T15:21:57.200Z,28.19
2022-08-17T15:24:23.627Z,27.82
2022-08-17T15:26:51.332Z,27.80
2022-08-17T15:29:17.790Z,27.54
2022-08-17T15:31:44.395Z,27.48
2022-08-17T15:34:11.005Z,27.67
2022-08-17T15:36:37.966Z,27.73
2022-08-17T15:39:07.826Z,28.06
2022-08-17T15:41:34.531Z,28.21
2022-08-17T15:44:00.993Z,28.20
2022-08-17T15:46:28.396Z,28.24
2022-08-17T15:48:59.601Z,28.19
2022-08-17T15:51:34.149Z,27.91
2022-08-17T15:54:19.377Z,27.82
2022-08-17T15:56:50.600Z,27.51
2022-08-17T15:59:17.261Z,27.74
2022-08-17T16:02:29.880Z,27.92
2022-08-17T16:04:31.909Z,27.94
2022-08-17T16:06:59.835Z,27.89
2022-08-17T16:09:27.001Z,27.76
2022-08-17T16:11:55.634Z,27.78
2022-08-17T16:14:24.070Z,27.67
2022-08-17T16:16:51.006Z,27.58
2022-08-17T16:19:17.570Z,27.38
2022-08-17T16:21:44.014Z,27.19
2022-08-17T16:24:12.800Z,27.37
2022-08-17T16:26:40.402Z,27.30
2022-08-17T16:29:07.730Z,27.38
2022-08-17T16:31:35.951Z,27.45
2022-08-17T16:34:16.124Z,27.38
2022-08-17T16:36:54.762Z,27.42
2022-08-17T16:39:23.105Z,27.26
2022-08-17T16:41:50.255Z,27.11
2022-08-17T16:44:18.897Z,27.12
2022-08-17T16:46:47.242Z,27.18
2022-08-17T16:49:36.355Z,27.12
2022-08-17T16:52:03.275Z,26.90
2022-08-17T16:54:30.253Z,26.75
2022-08-17T16:56:56.753Z,26.86
2022-08-17T16:59:30.883Z,27.01
2022-08-17T17:02:10.698Z,27.04
2022-08-17T17:04:51.832Z,26.95
2022-08-17T17:07:45.766Z,26.98
2022-08-17T17:10:16.097Z,26.92
2022-08-17T17:13:01.019Z,26.84
2022-08-17T17:15:51.728Z,26.61
2022-08-17T17:18:20.926Z,26.49
2022-08-17T17:20:56.442Z,26.43
2022-08-17T17:23:59.353Z,26.55
2022-08-17T17:26:38.171Z,26.41
2022-08-17T17:29:18.302Z,26.33
2022-08-17T17:31:56.742Z,26.27
2022-08-17T17:34:25.745Z,26.22
2022-08-17T17:36:57.823Z,26.15
2022-08-17T17:39:46.303Z,25.96
2022-08-17T17:42:20.006Z,25.93
2022-08-17T17:44:54.082Z,25.90
2022-08-17T17:47:21.359Z,25.81
2022-08-17T17:49:50.727Z,25.76
2022-08-17T17:52:32.097Z,25.72
2022-08-17T17:55:03.235Z,25.63
2022-08-17T17:57:50.239Z,25.55
2022-08-17T18:00:43.189Z,25.53
2022-08-17T18:03:19.219Z,25.42
2022-08-17T18:06:05.548Z,25.22
2022-08-17T18:08:46.419Z,25.04
2022-08-17T18:11:39.796Z,24.84
2022-08-17T18:14:18.353Z,24.64
2022-08-17T18:16:46.287Z,24.57
2022-08-17T18:19:21.348Z,24.45
2022-08-17T18:21:54.608Z,24.33
2022-08-17T18:24:33.693Z,24.25
2022-08-17T18:27:02.627Z,24.16
2022-08-17T18:29:42.673Z,24.07
2022-08-17T18:32:11.990Z,23.97
2022-08-17T18:34:47.040Z,23.87
2022-08-17T18:37:32.787Z,23.78
2022-08-17T18:40:08.227Z,23.71
2022-08-17T18:42:34.981Z,23.64
2022-08-17T18:45:01.796Z,23.57
2022-08-17T18:47:29.449Z,23.49
2022-08-17T18:49:59.183Z,23.40
2022-08-17T18:52:32.015Z,23.27
2022-08-17T18:55:22.044Z,23.11
2022-08-17T18:57:52.459Z,22.97
2022-08-17T19:00:38.318Z,22.85
2022-08-17T19:03:23.856Z,22.76
2022-08-17T19:05:57.136Z,22.73
2022-08-17T19:08:29.414Z,22.63
2022-08-17T19:11:01.095Z,22.56
2022-08-17T19:13:41.445Z,22.51
2022-08-17T19:16:28.126Z,22.37
2022-08-17T19:19:14.441Z,22.19
2022-08-17T19:21:52.997Z,22.07
2022-08-17T19:24:30.003Z,21.97
2022-08-17T19:27:17.915Z,21.95
2022-08-17T19:29:56.662Z,21.91
2022-08-17T19:32:29.013Z,21.92
2022-08-17T19:34:56.754Z,21.90
2022-08-17T19:37:44.635Z,21.93
2022-08-17T19:40:52.756Z,21.86
2022-08-17T19:43:47.946Z,21.84
2022-08-17T19:46:50.094Z,21.75
2022-08-17T19:49:41.109Z,21.65
2022-08-17T19:52:40.585Z,21.53
2022-08-17T19:55:20.753Z,21.43
2022-08-17T19:58:11.202Z,21.32
2022-08-17T20:00:50.479Z,21.28
2022-08-17T20:03:47.033Z,21.19
2022-08-17T20:06:14.397Z,21.11
2022-08-17T20:08:59.530Z,21.07
2022-08-17T20:11:41.809Z,21.03
2022-08-17T20:14:14.840Z,20.83
2022-08-17T20:16:42.156Z,20.67
2022-08-17T20:19:29.172Z,20.46
2022-08-17T20:22:09.599Z,20.33
2022-08-17T20:24:56.486Z,20.27
2022-08-17T20:27:31.317Z,20.22
2022-08-17T20:30:29.885Z,20.21
2022-08-17T20:32:58.165Z,20.19
2022-08-17T20:35:32.516Z,20.16
2022-08-17T20:38:05.972Z,20.21
2022-08-17T20:40:36.667Z,20.20
2022-08-17T20:43:34.153Z,20.06
2022-08-17T20:46:03.536Z,19.99
2022-08-17T20:48:42.108Z,19.94
2022-08-17T20:51:27.253Z,19.92
2022-08-17T20:53:53.713Z,19.89
2022-08-17T20:56:43.212Z,19.81
2022-08-17T20:59:28.532Z,19.75
2022-08-17T21:02:17.503Z,19.55
2022-08-17T21:04:50.777Z,19.38
2022-08-17T21:07:42.754Z,19.33
2022-08-17T21:10:12.548Z,19.29
2022-08-17T21:12:52.084Z,19.32
2022-08-17T21:15:30.938Z,19.34
2022-08-17T21:18:13.515Z,19.32
2022-08-17T21:20:58.432Z,19.29
2022-08-17T21:23:50.071Z,19.26
2022-08-17T21:26:21.293Z,19.26
2022-08-17T21:29:14.709Z,19.26
2022-08-17T21:32:10.327Z,19.26
2022-08-17T21:34:43.463Z,19.19
2022-08-17T21:37:24.450Z,19.14
2022-08-17T21:39:56.067Z,18.99
2022-08-17T21:42:29.687Z,18.89
2022-08-17T21:45:09.089Z,18.81
2022-08-17T21:47:36.253Z,18.82
2022-08-17T21:50:22.757Z,18.84
2022-08-17T21:52:53.884Z,18.82
2022-08-17T21:55:30.829Z,18.81
2022-08-17T21:58:14.054Z,18.79
2022-08-17T22:00:44.304Z,18.74
2022-08-17T22:03:25.879Z,18.62
2022-08-17T22:05:52.349Z,18.61
2022-08-17T22:08:23.589Z,18.59
2022-08-17T22:10:51.402Z,18.53
2022-08-17T22:13:18.031Z,18.49
2022-08-17T22:15:51.015Z,18.51
2022-08-17T22:18:26.963Z,18.55
2022-08-17T22:21:04.099Z,18.63
2022-08-17T22:23:53.564Z,18.60
2022-08-17T22:26:22.526Z,18.57
2022-08-17T22:28:51.583Z,18.46
2022-08-17T22:31:50.924Z,18.41
2022-08-17T22:34:17.439Z,18.32
2022-08-17T22:36:44.030Z,18.26
2022-08-17T22:39:10.411Z,18.27
2022-08-17T22:41:40.604Z,18.27
2022-08-17T22:44:28.125Z,18.30
2022-08-17T22:47:42.908Z,18.31
2022-08-17T22:50:29.100Z,18.28
2022-08-17T22:53:37.659Z,18.27
2022-08-17T22:56:23.643Z,18.22
2022-08-17T22:59:18.157Z,18.20
2022-08-17T23:02:05.630Z,18.24
2022-08-17T23:04:37.853Z,18.19
2022-08-17T23:07:05.946Z,18.21
2022-08-17T23:09:33.498Z,18.21
2022-08-17T23:12:00.167Z,18.24
2022-08-17T23:14:31.580Z,18.21
2022-08-17T23:17:02.089Z,18.21
2022-08-17T23:19:31.570Z,18.21
2022-08-17T23:21:59.270Z,18.22
2022-08-17T23:24:29.025Z,18.18
2022-08-17T23:26:57.301Z,18.09
2022-08-17T23:29:25.579Z,17.91
2022-08-17T23:31:52.622Z,17.82
2022-08-17T23:34:20.454Z,17.80
2022-08-17T23:36:52.366Z,17.81
2022-08-17T23:39:24.623Z,17.81
2022-08-17T23:41:54.445Z,17.82
2022-08-17T23:44:24.579Z,17.82
2022-08-17T23:46:52.218Z,17.87
2022-08-17T23:49:19.888Z,17.84
2022-08-17T23:51:48.210Z,17.86
2022-08-17T23:54:27.871Z,17.85
2022-08-17T23:56:54.441Z,17.77
2022-08-17T23:59:23.245Z,17.67
